Le Raizet Airport, Guadeloupe

4:38 AM AST on September 30, 2016 (GMT -0400)
Aéroport Raizet | | Change Station

Elev 16 ft 16.27 °N, 61.52 °W | Updated 1 minute ago

Mostly Cloudy
Mostly Cloudy
74.7 °F
Feels Like 72 °F
N
0.0
Wind Variable Wind from SW
Gusts 0.0 mph

Today
High -- | Low -- °F
--% Chance of Precip.
Yesterday
High -- | Low -- °F
Precip. -- in
Pressure 29.86 in
Visibility 4.3 miles
Clouds Few 2300 ft
Mostly Cloudy 6800 ft
Mostly Cloudy 9000 ft
Heat Index 72 °F
Dew Point 74 °F
Humidity 96%
Rainfall 0.00 in
Snow Depth Not available.
5:56 AM 5:55 PM
Waning Crescent, 0% visible
METAR TFFR 300830Z AUTO 06004KT 7000 FEW023 BKN068 BKN090 25/24 Q1011
Pressure 29.86 in
Visibility 4.3 miles
Clouds Few 2300 ft
Mostly Cloudy 6800 ft
Mostly Cloudy 9000 ft
Heat Index 72 °F
Dew Point 74 °F
Humidity 96%
Rainfall 0.00 in
Snow Depth Not available.
5:56 AM 5:55 PM
Waning Crescent, 0% visible
METAR TFFR 300830Z AUTO 06004KT 7000 FEW023 BKN068 BKN090 25/24 Q1011

10-Day Weather Forecast

No radar image for this location.
×

Almanac

Astronomy

Sep. 30, 2016 Rise Set
Actual Time
Civil Twilight
Nautical Twilight
Astronomical Twilight
Moon
Length of Visible Light
Length of Day
Tomorrow will be .
, % of the Moon is Illuminated

Today's Extremes

Country Highs Country Lows

Community

WunderPhotos

Upload Photos

1,942,668 photos uploaded!

WunderBlog® & News

Nearby

Air Quality

  Air Quality AQ Index Pollutant
Not available.

Snow Depth

Station Depth Elevation

Earthquake Activity

City Distance Mag. Time & Date
Minimum magnitude displayed is 2.5.

Coastal Water Temperatures

Place Temperature

Stations

Nearby Weather Stations

Station Location Temp. Windchill Dew Point Humidity Wind Precip. Elev Updated Type